Time;durP1;ratioP1;P1;durP2;ratioP2;P2;SDS_P1;SDS_P2;PMS_P1;PMS_P2;Temp;Humidity;BMP_temperature;BMP_pressure;BME280_temperature;BME280_humidity;BME280_pressure;Samples;Min_cycle;Max_cycle;Signal;HPM_P1;HPM_P2
2023/04/25 00:01:57;;;;;;;9.45;6.38;;;;;;;;;;5135081;27;20106;-76
2023/04/25 00:04:43;;;;;;;7.60;6.35;;;;;;;;;;5120799;27;20015;-76
2023/04/25 00:07:28;;;;;;;9.48;6.25;;;;;;;;;;5135705;27;20131;-77
2023/04/25 00:10:14;;;;;;;8.18;6.63;;;;;;;;;;5134964;27;20024;-77
2023/04/25 00:13:02;;;;;;;9.00;6.00;;;;;;;;;;5120944;27;20030;-77
2023/04/25 00:15:48;;;;;;;8.45;6.40;;;;;;;;;;5120630;27;20098;-76
2023/04/25 00:18:34;;;;;;;8.38;6.15;;;;;;;;;;5121017;27;20027;-75
2023/04/25 00:21:20;;;;;;;6.72;6.00;;;;;;;;;;5135491;27;20030;-76
2023/04/25 00:24:06;;;;;;;6.93;5.80;;;;;;;;;;5120326;27;20047;-76
2023/04/25 00:26:52;;;;;;;6.97;5.45;;;;;;;;;;5134166;27;20031;-76
2023/04/25 00:29:38;;;;;;;10.30;5.50;;;;;;;;;;5120573;27;20063;-76
2023/04/25 00:32:23;;;;;;;7.75;5.00;;;;;;;;;;5134869;27;20045;-75
2023/04/25 00:35:09;;;;;;;5.40;4.68;;;;;;;;;;5120692;27;20031;-76
2023/04/25 00:37:55;;;;;;;6.15;4.97;;;;;;;;;;5120395;27;20444;-76
2023/04/25 00:40:43;;;;;;;8.27;5.78;;;;;;;;;;5134702;27;20034;-76
2023/04/25 00:43:30;;;;;;;6.90;5.28;;;;;;;;;;5135138;27;20027;-76
2023/04/25 00:46:15;;;;;;;6.43;5.15;;;;;;;;;;5120175;27;20030;-76
2023/04/25 00:49:01;;;;;;;6.15;5.53;;;;;;;;;;5120503;27;20350;-76
2023/04/25 00:51:46;;;;;;;6.68;5.45;;;;;;;;;;5120503;27;20023;-77
2023/04/25 00:54:32;;;;;;;6.50;5.47;;;;;;;;;;5133910;27;20023;-77
2023/04/25 00:57:18;;;;;;;6.40;5.43;;;;;;;;;;5134435;28;20037;-76
2023/04/25 01:00:05;;;;;;;6.45;5.50;;;;;;;;;;5134955;28;20026;-77
2023/04/25 01:02:51;;;;;;;7.15;5.57;;;;;;;;;;5135826;28;20410;-76
2023/04/25 01:05:37;;;;;;;7.20;5.97;;;;;;;;;;5135150;28;20019;-76
2023/04/25 01:08:24;;;;;;;8.07;6.05;;;;;;;;;;5119644;28;20100;-77
2023/04/25 01:11:10;;;;;;;7.32;6.00;;;;;;;;;;5119293;28;20059;-76
2023/04/25 01:13:55;;;;;;;7.18;5.68;;;;;;;;;;5134792;28;20136;-77
2023/04/25 01:16:42;;;;;;;7.88;6.38;;;;;;;;;;5135962;27;20079;-76
2023/04/25 01:19:28;;;;;;;9.20;6.05;;;;;;;;;;5139526;27;20023;-76
2023/04/25 01:22:14;;;;;;;7.90;6.07;;;;;;;;;;5137986;27;20023;-76
2023/04/25 01:25:00;;;;;;;8.57;6.20;;;;;;;;;;5139367;27;20412;-76
2023/04/25 01:27:46;;;;;;;6.78;5.88;;;;;;;;;;5140949;27;20114;-76
2023/04/25 01:30:32;;;;;;;7.25;6.00;;;;;;;;;;5139724;27;20015;-75
2023/04/25 01:33:19;;;;;;;7.50;6.07;;;;;;;;;;5138271;27;20015;-77
2023/04/25 01:36:04;;;;;;;7.93;6.20;;;;;;;;;;5138054;27;20335;-75
2023/04/25 01:38:50;;;;;;;11.05;6.35;;;;;;;;;;5138636;27;20402;-77
2023/04/25 01:41:36;;;;;;;7.57;5.80;;;;;;;;;;5138845;27;20038;-75
2023/04/25 01:44:22;;;;;;;7.93;6.30;;;;;;;;;;5137379;27;20027;-75
2023/04/25 01:47:07;;;;;;;7.03;5.78;;;;;;;;;;5137772;27;20023;-77
2023/04/25 01:49:53;;;;;;;10.23;6.72;;;;;;;;;;5138322;27;20027;-77
2023/04/25 01:52:38;;;;;;;7.07;6.15;;;;;;;;;;5139060;27;20073;-76
2023/04/25 01:55:24;;;;;;;9.23;6.32;;;;;;;;;;5137783;27;20094;-77
2023/04/25 01:58:12;;;;;;;8.70;6.28;;;;;;;;;;5139242;27;20023;-76
2023/04/25 02:00:58;;;;;;;9.38;6.75;;;;;;;;;;5138357;27;20018;-77
2023/04/25 02:03:43;;;;;;;7.60;6.28;;;;;;;;;;5137680;27;20024;-77
2023/04/25 02:06:30;;;;;;;8.77;6.40;;;;;;;;;;5137608;27;20336;-76
2023/04/25 02:09:16;;;;;;;7.13;6.20;;;;;;;;;;5139609;27;20035;-76
2023/04/25 02:12:01;;;;;;;8.90;6.40;;;;;;;;;;5159504;27;20055;-76
2023/04/25 02:14:47;;;;;;;9.80;7.30;;;;;;;;;;5138225;27;20458;-77
2023/04/25 02:17:33;;;;;;;8.00;6.80;;;;;;;;;;5123574;27;20019;-77
2023/04/25 02:20:21;;;;;;;7.35;6.20;;;;;;;;;;5137643;27;20015;-77
2023/04/25 02:23:06;;;;;;;6.95;5.90;;;;;;;;;;5123136;27;20049;-77
2023/04/25 02:25:52;;;;;;;9.27;7.07;;;;;;;;;;5137353;27;20015;-76
2023/04/25 02:28:38;;;;;;;9.52;6.97;;;;;;;;;;5137718;27;20336;-76
2023/04/25 02:31:23;;;;;;;8.45;6.10;;;;;;;;;;5158340;27;20054;-77
2023/04/25 02:34:09;;;;;;;8.95;6.90;;;;;;;;;;5137177;27;20027;-77
2023/04/25 02:36:54;;;;;;;8.45;6.85;;;;;;;;;;5137236;27;20016;-76
2023/04/25 02:39:40;;;;;;;8.40;7.18;;;;;;;;;;5122744;27;20027;-76
2023/04/25 02:42:26;;;;;;;7.45;6.43;;;;;;;;;;5136703;27;20106;-76
2023/04/25 02:45:12;;;;;;;9.55;6.78;;;;;;;;;;5122197;27;20062;-77
2023/04/25 02:47:57;;;;;;;8.73;7.28;;;;;;;;;;5136700;27;20023;-77
2023/04/25 02:50:43;;;;;;;11.35;7.38;;;;;;;;;;5135795;27;20103;-77
2023/04/25 02:53:29;;;;;;;8.38;6.95;;;;;;;;;;5123117;27;20023;-77
2023/04/25 02:56:14;;;;;;;12.60;7.97;;;;;;;;;;5136927;27;20389;-77
2023/04/25 02:59:00;;;;;;;9.23;7.35;;;;;;;;;;5137304;27;20015;-76
2023/04/25 03:01:45;;;;;;;10.65;8.23;;;;;;;;;;5136203;27;20152;-78
2023/04/25 03:04:31;;;;;;;12.85;7.78;;;;;;;;;;5135456;27;20019;-78
2023/04/25 03:07:17;;;;;;;9.88;7.60;;;;;;;;;;5121518;27;20355;-76
2023/04/25 03:10:02;;;;;;;12.65;9.07;;;;;;;;;;5136689;27;20019;-76
2023/04/25 03:12:48;;;;;;;18.25;11.32;;;;;;;;;;5135954;27;20019;-76
2023/04/25 03:15:35;;;;;;;14.25;9.57;;;;;;;;;;5135526;27;20019;-76
2023/04/25 03:18:20;;;;;;;15.75;10.18;;;;;;;;;;5121303;27;20023;-77
2023/04/25 03:21:06;;;;;;;13.07;9.20;;;;;;;;;;5136400;27;20069;-77
2023/04/25 03:23:52;;;;;;;14.63;8.43;;;;;;;;;;5135188;27;20015;-77
2023/04/25 03:26:37;;;;;;;13.23;8.02;;;;;;;;;;5121860;27;20348;-77
2023/04/25 03:29:25;;;;;;;9.45;7.60;;;;;;;;;;5135536;27;20061;-77
2023/04/25 03:32:11;;;;;;;9.10;6.68;;;;;;;;;;5135676;27;20022;-77
2023/04/25 03:34:56;;;;;;;15.23;7.90;;;;;;;;;;5135710;27;20012;-77
2023/04/25 03:37:45;;;;;;;11.60;6.90;;;;;;;;;;5134875;27;20019;-78
2023/04/25 03:40:30;;;;;;;11.88;7.20;;;;;;;;;;5135154;27;20093;-79
2023/04/25 03:43:16;;;;;;;11.68;7.22;;;;;;;;;;5136411;27;20375;-78
2023/04/25 03:46:02;;;;;;;14.93;7.07;;;;;;;;;;5135953;27;20019;-77
2023/04/25 03:48:47;;;;;;;12.43;7.28;;;;;;;;;;5134914;27;20034;-78
2023/04/25 03:51:33;;;;;;;11.52;6.72;;;;;;;;;;5136441;27;20015;-79
2023/04/25 03:54:19;;;;;;;16.50;7.70;;;;;;;;;;5120637;27;20141;-80
2023/04/25 03:57:04;;;;;;;12.45;7.20;;;;;;;;;;5136461;27;20401;-80
2023/04/25 03:59:50;;;;;;;17.40;7.93;;;;;;;;;;5120823;27;20220;-80
2023/04/25 04:02:37;;;;;;;14.10;7.30;;;;;;;;;;5120284;27;20038;-79
2023/04/25 04:05:23;;;;;;;15.18;7.63;;;;;;;;;;5120959;27;20083;-77
2023/04/25 04:08:08;;;;;;;14.38;7.60;;;;;;;;;;5120396;27;20465;-77
2023/04/25 04:10:54;;;;;;;18.55;7.78;;;;;;;;;;5134352;27;20107;-78
2023/04/25 04:13:39;;;;;;;13.38;7.38;;;;;;;;;;5121639;27;20011;-77
2023/04/25 04:16:25;;;;;;;16.98;8.32;;;;;;;;;;5135443;27;20031;-78
2023/04/25 04:19:11;;;;;;;14.15;7.57;;;;;;;;;;5135216;27;20023;-77
2023/04/25 04:21:56;;;;;;;10.07;7.32;;;;;;;;;;5134906;27;20091;-77
2023/04/25 04:24:46;;;;;;;13.98;7.30;;;;;;;;;;5134237;27;20383;-77
2023/04/25 04:27:31;;;;;;;16.50;7.57;;;;;;;;;;5135036;27;20023;-74
2023/04/25 04:30:17;;;;;;;21.30;8.23;;;;;;;;;;5121185;27;20030;-76
2023/04/25 04:33:03;;;;;;;13.90;7.80;;;;;;;;;;5133733;27;20332;-77
2023/04/25 04:35:52;;;;;;;14.15;7.20;;;;;;;;;;5135148;27;20023;-77
2023/04/25 04:38:37;;;;;;;15.77;7.40;;;;;;;;;;5135060;27;20030;-78
2023/04/25 04:41:23;;;;;;;12.43;7.65;;;;;;;;;;5134871;27;20037;-77
2023/04/25 04:44:08;;;;;;;23.50;8.15;;;;;;;;;;5134394;27;20027;-77
2023/04/25 04:46:54;;;;;;;23.00;8.18;;;;;;;;;;5138318;27;20350;-78
2023/04/25 04:49:40;;;;;;;21.65;8.57;;;;;;;;;;5156558;27;20035;-75
2023/04/25 04:52:25;;;;;;;19.88;8.45;;;;;;;;;;5120389;27;20060;-76
2023/04/25 04:55:11;;;;;;;30.65;9.30;;;;;;;;;;5134635;27;20042;-77
2023/04/25 04:57:57;;;;;;;18.63;8.80;;;;;;;;;;5119035;28;20034;-76
2023/04/25 05:00:43;;;;;;;17.50;8.98;;;;;;;;;;5135030;28;20111;-77
2023/04/25 05:03:28;;;;;;;19.13;9.15;;;;;;;;;;5135623;28;20065;-77
2023/04/25 05:06:14;;;;;;;19.20;9.23;;;;;;;;;;5135403;28;20019;-76
2023/04/25 05:08:59;;;;;;;14.50;9.02;;;;;;;;;;5151868;28;20134;-77
2023/04/25 05:11:45;;;;;;;12.25;8.60;;;;;;;;;;5135450;28;20023;-77
2023/04/25 05:14:31;;;;;;;15.15;9.88;;;;;;;;;;5134222;28;20428;-76
2023/04/25 05:17:16;;;;;;;16.23;11.02;;;;;;;;;;5134033;28;20023;-76
2023/04/25 05:20:02;;;;;;;14.60;8.80;;;;;;;;;;5133896;28;20018;-76
2023/04/25 05:22:48;;;;;;;14.88;10.68;;;;;;;;;;5118957;28;20023;-77
2023/04/25 05:25:33;;;;;;;15.35;10.20;;;;;;;;;;5133484;28;20070;-77
2023/04/25 05:28:20;;;;;;;13.05;9.98;;;;;;;;;;5134879;28;20019;-77
2023/04/25 05:31:06;;;;;;;13.65;10.10;;;;;;;;;;5133996;28;20431;-76
2023/04/25 05:33:52;;;;;;;12.93;9.93;;;;;;;;;;5134421;28;20459;-78
2023/04/25 05:36:37;;;;;;;19.38;11.40;;;;;;;;;;5133160;28;20083;-77
2023/04/25 05:39:23;;;;;;;14.43;9.20;;;;;;;;;;5119429;28;20504;-76
2023/04/25 05:42:08;;;;;;;12.85;9.13;;;;;;;;;;5134779;28;20031;-77
2023/04/25 05:44:54;;;;;;;14.43;9.55;;;;;;;;;;5133464;28;20023;-76
2023/04/25 05:47:42;;;;;;;13.73;10.20;;;;;;;;;;5134191;28;20023;-76
2023/04/25 05:50:28;;;;;;;12.98;10.02;;;;;;;;;;5134320;28;20080;-76
2023/04/25 05:53:13;;;;;;;16.25;11.68;;;;;;;;;;5132947;28;20015;-76
2023/04/25 05:55:59;;;;;;;14.38;10.40;;;;;;;;;;5134480;28;20011;-77
2023/04/25 05:58:45;;;;;;;14.55;10.10;;;;;;;;;;5133766;28;20031;-77
2023/04/25 06:01:30;;;;;;;15.32;10.55;;;;;;;;;;5133634;28;20393;-76
2023/04/25 06:04:16;;;;;;;17.40;11.30;;;;;;;;;;5137505;27;20027;-77
2023/04/25 06:07:02;;;;;;;16.05;11.93;;;;;;;;;;5136319;27;20042;-77
2023/04/25 06:09:48;;;;;;;16.95;11.45;;;;;;;;;;5137529;27;20098;-77
2023/04/25 06:12:33;;;;;;;19.80;12.52;;;;;;;;;;5138242;27;20016;-76
2023/04/25 06:15:19;;;;;;;22.58;12.98;;;;;;;;;;5122451;27;20419;-74
2023/04/25 06:18:04;;;;;;;18.83;13.00;;;;;;;;;;5137626;27;20030;-75
2023/04/25 06:20:50;;;;;;;20.63;12.32;;;;;;;;;;5136511;27;20051;-76
2023/04/25 06:23:36;;;;;;;25.33;13.77;;;;;;;;;;5137243;27;20027;-74
2023/04/25 06:26:21;;;;;;;20.23;13.98;;;;;;;;;;5136418;27;20033;-75
2023/04/25 06:29:07;;;;;;;23.63;14.27;;;;;;;;;;5137209;27;20023;-75
2023/04/25 06:31:52;;;;;;;23.10;14.25;;;;;;;;;;5137228;27;20047;-76
2023/04/25 06:34:38;;;;;;;19.55;13.80;;;;;;;;;;5136363;27;20355;-77
2023/04/25 06:37:24;;;;;;;21.17;13.98;;;;;;;;;;5136284;27;20061;-75
2023/04/25 06:40:10;;;;;;;18.73;14.30;;;;;;;;;;5136812;27;20092;-75
2023/04/25 06:42:55;;;;;;;25.05;16.30;;;;;;;;;;5135939;27;20023;-75
2023/04/25 06:45:42;;;;;;;23.15;16.60;;;;;;;;;;5135991;27;20027;-75
2023/04/25 06:48:27;;;;;;;24.98;17.48;;;;;;;;;;5123144;27;20023;-73
2023/04/25 06:51:13;;;;;;;26.85;17.55;;;;;;;;;;5136953;27;20019;-74
2023/04/25 06:53:59;;;;;;;27.02;17.90;;;;;;;;;;5137289;27;20023;-74
2023/04/25 06:56:44;;;;;;;29.48;19.50;;;;;;;;;;5121515;27;20043;-73
2023/04/25 06:59:30;;;;;;;27.13;18.65;;;;;;;;;;5137985;27;20057;-74
2023/04/25 10:21:50;;;;;;;11.02;7.35;;;;;;;;;;4977513;28;20059;-73
2023/04/25 10:24:37;;;;;;;5.03;3.97;;;;;;;;;;4998398;28;20034;-70
2023/04/25 10:27:23;;;;;;;3.90;3.08;;;;;;;;;;4998963;28;20023;-74
2023/04/25 10:30:28;;;;;;;4.55;2.50;;;;;;;;;;5151007;23;20129;-74
2023/04/25 10:33:18;;;;;;;4.38;3.40;;;;;;;;;;4957432;29;20438;-71
2023/04/25 10:36:14;;;;;;;5.72;3.78;;;;;;;;;;4943426;29;20038;-73
2023/04/25 10:39:06;;;;;;;9.05;3.75;;;;;;;;;;4956829;29;20459;-73
2023/04/25 10:41:53;;;;;;;5.18;3.92;;;;;;;;;;4924318;29;20088;-71
2023/04/25 10:44:39;;;;;;;6.72;3.80;;;;;;;;;;4937487;29;20103;-71
2023/04/25 10:47:34;;;;;;;4.00;3.60;;;;;;;;;;4938218;29;20128;-72
2023/04/25 10:50:20;;;;;;;5.18;4.03;;;;;;;;;;4937553;29;20448;-71
2023/04/25 10:53:15;;;;;;;6.53;4.25;;;;;;;;;;4925084;29;20110;-72
2023/04/25 10:56:00;;;;;;;5.50;4.00;;;;;;;;;;4937984;29;20431;-74
2023/04/25 10:58:52;;;;;;;6.18;4.75;;;;;;;;;;4937597;29;20039;-72
2023/04/25 11:01:39;;;;;;;5.22;4.47;;;;;;;;;;4938226;29;20032;-73
2023/04/25 11:04:28;;;;;;;6.65;4.28;;;;;;;;;;4938513;29;20035;-77
2023/04/25 11:07:30;;;;;;;5.07;4.20;;;;;;;;;;4938457;29;20031;-75
2023/04/25 11:10:16;;;;;;;5.30;4.30;;;;;;;;;;4960369;28;20097;-74
2023/04/25 11:13:04;;;;;;;6.40;4.65;;;;;;;;;;4978090;28;20069;-75
2023/04/25 11:15:56;;;;;;;7.22;4.35;;;;;;;;;;4978009;28;20044;-74
2023/04/25 11:18:47;;;;;;;11.35;4.47;;;;;;;;;;4963974;28;20023;-73
2023/04/25 11:21:35;;;;;;;7.32;3.95;;;;;;;;;;4978756;28;20041;-74
2023/04/25 11:24:25;;;;;;;5.38;3.67;;;;;;;;;;4978602;28;20387;-72
2023/04/25 11:27:10;;;;;;;6.07;3.75;;;;;;;;;;4963497;28;20019;-72
2023/04/25 11:29:56;;;;;;;4.15;3.05;;;;;;;;;;4962984;28;20094;-73
2023/04/25 11:32:43;;;;;;;6.78;3.60;;;;;;;;;;4962894;28;20033;-73
2023/04/25 11:35:28;;;;;;;4.57;3.50;;;;;;;;;;4963482;28;20034;-72
2023/04/25 11:38:14;;;;;;;6.05;3.67;;;;;;;;;;4978661;28;20046;-74
2023/04/25 11:41:00;;;;;;;5.55;3.55;;;;;;;;;;4977575;28;20034;-74
2023/04/25 11:43:45;;;;;;;5.32;3.40;;;;;;;;;;4976876;28;20042;-73
2023/04/25 11:46:34;;;;;;;4.68;3.90;;;;;;;;;;4977996;28;20019;-74
2023/04/25 11:49:21;;;;;;;5.13;4.35;;;;;;;;;;4975263;28;20418;-75
2023/04/25 11:52:07;;;;;;;5.90;4.80;;;;;;;;;;4977156;28;20018;-72
2023/04/25 11:54:53;;;;;;;6.80;4.10;;;;;;;;;;4963581;28;20113;-74
2023/04/25 11:57:39;;;;;;;5.65;4.13;;;;;;;;;;4977112;28;20132;-73
2023/04/25 12:00:25;;;;;;;5.28;4.20;;;;;;;;;;4962471;28;20447;-74
2023/04/25 12:03:11;;;;;;;6.50;4.95;;;;;;;;;;4977824;28;20034;-74
2023/04/25 12:06:02;;;;;;;5.93;4.80;;;;;;;;;;4972873;28;20450;-75
2023/04/25 12:09:00;;;;;;;5.43;4.28;;;;;;;;;;4974849;28;20450;-75
2023/04/25 12:11:46;;;;;;;5.85;3.78;;;;;;;;;;4976829;28;20030;-73
2023/04/25 12:14:33;;;;;;;5.68;4.10;;;;;;;;;;4962018;28;20101;-75
2023/04/25 12:17:18;;;;;;;6.47;4.13;;;;;;;;;;4975613;28;20106;-73
2023/04/25 12:20:08;;;;;;;6.85;4.45;;;;;;;;;;4976543;28;20089;-73
2023/04/25 12:22:55;;;;;;;5.18;4.00;;;;;;;;;;4974997;28;20047;-74
2023/04/25 12:25:41;;;;;;;5.15;3.85;;;;;;;;;;4975462;28;20102;-73
2023/04/25 12:28:27;;;;;;;6.43;3.50;;;;;;;;;;4975445;28;20030;-74
2023/04/25 12:31:15;;;;;;;3.80;3.40;;;;;;;;;;4976778;28;20463;-74
2023/04/25 12:34:00;;;;;;;4.20;3.25;;;;;;;;;;4975865;28;20069;-75
2023/04/25 12:36:46;;;;;;;5.13;3.70;;;;;;;;;;4976860;28;20027;-73
2023/04/25 12:39:32;;;;;;;4.57;3.10;;;;;;;;;;4975486;28;20038;-73
2023/04/25 12:42:17;;;;;;;3.85;3.22;;;;;;;;;;4975988;28;20030;-74
2023/04/25 12:45:03;;;;;;;5.75;4.00;;;;;;;;;;4976619;28;20029;-75
2023/04/25 12:47:49;;;;;;;4.90;3.60;;;;;;;;;;4975064;28;20027;-74
2023/04/25 12:50:35;;;;;;;3.58;2.90;;;;;;;;;;4975229;28;20444;-73
2023/04/25 12:53:22;;;;;;;4.75;3.08;;;;;;;;;;4976847;28;20473;-73
2023/04/25 12:56:08;;;;;;;4.38;2.83;;;;;;;;;;4975240;28;20030;-74
2023/04/25 12:58:54;;;;;;;3.78;3.13;;;;;;;;;;4975006;28;20026;-74
2023/04/25 13:01:39;;;;;;;3.75;3.03;;;;;;;;;;4976650;28;20069;-74
2023/04/25 13:04:25;;;;;;;3.10;2.80;;;;;;;;;;4963102;28;20058;-75
2023/04/25 13:07:10;;;;;;;4.03;2.70;;;;;;;;;;4976644;28;20394;-73
2023/04/25 13:09:56;;;;;;;3.67;2.83;;;;;;;;;;4976426;28;20026;-74
2023/04/25 13:12:42;;;;;;;6.25;2.95;;;;;;;;;;4978107;28;20022;-73
2023/04/25 13:15:27;;;;;;;4.15;2.60;;;;;;;;;;4966492;28;20038;-75
2023/04/25 13:18:13;;;;;;;2.83;2.05;;;;;;;;;;4979147;28;20038;-74
2023/04/25 13:21:03;;;;;;;4.53;2.50;;;;;;;;;;4981989;28;20086;-74
2023/04/25 13:23:48;;;;;;;2.50;2.28;;;;;;;;;;4979293;28;20446;-74
2023/04/25 13:26:34;;;;;;;3.45;2.67;;;;;;;;;;4979537;28;20031;-74
2023/04/25 13:29:19;;;;;;;5.35;2.40;;;;;;;;;;4978479;28;20423;-73
2023/04/25 13:32:05;;;;;;;4.15;2.40;;;;;;;;;;4978431;28;20086;-74
2023/04/25 13:34:52;;;;;;;4.45;2.50;;;;;;;;;;4981998;28;20049;-72
2023/04/25 13:37:38;;;;;;;2.88;2.30;;;;;;;;;;4992982;28;20089;-74
2023/04/25 13:40:24;;;;;;;3.58;2.20;;;;;;;;;;4979735;28;20027;-74
2023/04/25 13:43:09;;;;;;;4.20;2.60;;;;;;;;;;4978431;28;20027;-73
2023/04/25 13:45:55;;;;;;;3.80;2.97;;;;;;;;;;4979622;28;20487;-74
2023/04/25 13:48:46;;;;;;;3.22;2.40;;;;;;;;;;4980347;28;20418;-73
2023/04/25 13:51:31;;;;;;;3.85;2.40;;;;;;;;;;4979905;28;20062;-73
2023/04/25 13:54:17;;;;;;;3.63;2.70;;;;;;;;;;4980019;28;20026;-71
2023/04/25 13:57:02;;;;;;;4.45;3.00;;;;;;;;;;4973834;28;20018;-73
2023/04/25 13:59:48;;;;;;;2.72;2.00;;;;;;;;;;4965193;28;20019;-75
2023/04/25 14:02:37;;;;;;;4.53;2.33;;;;;;;;;;4979805;28;20034;-75
2023/04/25 14:05:22;;;;;;;2.80;2.22;;;;;;;;;;4964014;28;20034;-74
2023/04/25 14:08:09;;;;;;;4.90;2.40;;;;;;;;;;4978554;28;20370;-74
2023/04/25 14:10:55;;;;;;;2.33;2.00;;;;;;;;;;4978745;28;20058;-74
2023/04/25 14:13:40;;;;;;;2.90;2.30;;;;;;;;;;4965531;28;20133;-75
2023/04/25 14:16:26;;;;;;;3.50;2.15;;;;;;;;;;4965869;28;20116;-72
2023/04/25 14:19:11;;;;;;;3.10;2.40;;;;;;;;;;4981972;28;20447;-75
2023/04/25 14:21:57;;;;;;;5.45;4.00;;;;;;;;;;4966913;28;20038;-74
2023/04/25 14:24:42;;;;;;;2.53;2.33;;;;;;;;;;4980220;28;20023;-74
2023/04/25 14:27:28;;;;;;;3.55;2.33;;;;;;;;;;4964221;28;20085;-74
2023/04/25 14:30:14;;;;;;;9.20;2.38;;;;;;;;;;4964927;28;20055;-73
2023/04/25 14:32:59;;;;;;;3.20;1.73;;;;;;;;;;4979484;28;20158;-74
2023/04/25 14:35:45;;;;;;;2.75;1.80;;;;;;;;;;4964146;28;20031;-74
2023/04/25 14:38:31;;;;;;;3.92;1.60;;;;;;;;;;4964423;28;20022;-75
2023/04/25 14:41:17;;;;;;;3.70;1.77;;;;;;;;;;4978283;28;20034;-75
2023/04/25 14:44:02;;;;;;;2.35;1.75;;;;;;;;;;4978616;28;20358;-75
2023/04/25 14:46:49;;;;;;;2.60;1.90;;;;;;;;;;4979020;28;20026;-76
2023/04/25 14:49:34;;;;;;;6.57;2.50;;;;;;;;;;4964420;28;20034;-75
2023/04/25 14:52:20;;;;;;;12.18;2.58;;;;;;;;;;4977790;28;20443;-75
2023/04/25 14:55:07;;;;;;;7.97;2.75;;;;;;;;;;4964614;28;20023;-73
2023/04/25 14:57:53;;;;;;;3.80;1.90;;;;;;;;;;4963242;28;20024;-76
2023/04/25 15:00:39;;;;;;;5.63;2.55;;;;;;;;;;4963428;28;20034;-74
2023/04/25 15:03:25;;;;;;;16.75;4.35;;;;;;;;;;4977631;28;20022;-74
2023/04/25 15:06:10;;;;;;;14.63;5.63;;;;;;;;;;4963150;28;20027;-73
2023/04/25 15:08:56;;;;;;;11.52;3.63;;;;;;;;;;4963464;28;20031;-74
2023/04/25 15:11:42;;;;;;;10.27;3.30;;;;;;;;;;4976658;28;20340;-74
2023/04/25 15:14:28;;;;;;;10.93;3.65;;;;;;;;;;4978424;28;20022;-75
2023/04/25 15:17:14;;;;;;;6.75;3.42;;;;;;;;;;4964123;28;20082;-76
2023/04/25 15:20:00;;;;;;;7.07;3.55;;;;;;;;;;4963001;28;20113;-74
2023/04/25 15:22:45;;;;;;;7.38;4.00;;;;;;;;;;4964194;28;20042;-74
2023/04/25 15:25:31;;;;;;;4.90;3.25;;;;;;;;;;4977225;28;20033;-74
2023/04/25 15:28:17;;;;;;;7.00;2.97;;;;;;;;;;4976906;28;20110;-74
2023/04/25 15:31:02;;;;;;;4.20;3.50;;;;;;;;;;4976846;28;20134;-74
2023/04/25 15:33:48;;;;;;;6.47;3.35;;;;;;;;;;4963073;28;20023;-74
2023/04/25 15:36:33;;;;;;;7.15;3.70;;;;;;;;;;4976612;28;20018;-76
2023/04/25 15:39:19;;;;;;;5.10;3.70;;;;;;;;;;4962717;28;20062;-74
2023/04/25 15:42:04;;;;;;;6.60;4.05;;;;;;;;;;4962071;28;20023;-73
2023/04/25 15:44:50;;;;;;;4.72;4.03;;;;;;;;;;4977318;28;20023;-74
2023/04/25 15:47:36;;;;;;;7.13;4.20;;;;;;;;;;4963278;28;20058;-74
2023/04/25 15:50:22;;;;;;;5.53;3.72;;;;;;;;;;4963985;28;20454;-74
2023/04/25 15:53:09;;;;;;;4.82;3.22;;;;;;;;;;4976261;28;20050;-74
2023/04/25 15:55:54;;;;;;;3.65;3.00;;;;;;;;;;4976841;28;20410;-75
2023/04/25 15:58:40;;;;;;;5.38;3.20;;;;;;;;;;4963200;28;20047;-74
2023/04/25 16:01:29;;;;;;;3.47;3.03;;;;;;;;;;4977265;28;20439;-74
2023/04/25 16:04:15;;;;;;;5.20;3.08;;;;;;;;;;4977259;28;20053;-73
2023/04/25 16:07:02;;;;;;;5.22;3.58;;;;;;;;;;4976399;28;20031;-75
2023/04/25 16:09:48;;;;;;;7.68;4.22;;;;;;;;;;4976281;28;20085;-75
2023/04/25 16:12:34;;;;;;;10.52;4.65;;;;;;;;;;4976885;28;20019;-76
2023/04/25 16:15:20;;;;;;;6.05;4.32;;;;;;;;;;4976519;28;20109;-73
2023/04/25 16:18:06;;;;;;;5.57;4.10;;;;;;;;;;4977416;28;20459;-76
2023/04/25 16:20:52;;;;;;;7.88;4.18;;;;;;;;;;4962117;28;20443;-76
2023/04/25 16:23:38;;;;;;;7.18;4.70;;;;;;;;;;4977354;28;20039;-74
2023/04/25 16:26:23;;;;;;;7.93;4.90;;;;;;;;;;4962680;28;20019;-77
2023/04/25 16:29:09;;;;;;;8.10;4.50;;;;;;;;;;4976013;28;20054;-76
2023/04/25 16:31:55;;;;;;;5.22;4.07;;;;;;;;;;4962988;28;20143;-76
2023/04/25 16:34:41;;;;;;;5.78;3.80;;;;;;;;;;4975589;28;20062;-74
2023/04/25 16:37:26;;;;;;;6.10;4.10;;;;;;;;;;4975359;28;20433;-76
2023/04/25 16:40:12;;;;;;;5.63;3.47;;;;;;;;;;4961803;28;20033;-75
2023/04/25 16:42:57;;;;;;;6.65;3.55;;;;;;;;;;4987760;28;20029;-75
2023/04/25 16:45:43;;;;;;;4.68;3.20;;;;;;;;;;4987180;28;20462;-73
2023/04/25 16:48:29;;;;;;;8.60;3.50;;;;;;;;;;4979841;28;20042;-76
2023/04/25 16:51:14;;;;;;;6.57;3.40;;;;;;;;;;4977565;28;20050;-76
2023/04/25 16:54:00;;;;;;;5.25;3.33;;;;;;;;;;4976470;28;20467;-76
2023/04/25 16:56:46;;;;;;;5.85;3.40;;;;;;;;;;4975912;28;20022;-75
2023/04/25 16:59:31;;;;;;;4.07;3.20;;;;;;;;;;4977153;28;20030;-74
2023/04/25 17:02:17;;;;;;;4.05;2.83;;;;;;;;;;4976914;28;20023;-75
2023/04/25 17:05:03;;;;;;;4.85;2.83;;;;;;;;;;4973121;28;20039;-73
2023/04/25 17:07:51;;;;;;;4.13;2.80;;;;;;;;;;4981383;28;20031;-75
2023/04/25 17:10:37;;;;;;;4.40;2.53;;;;;;;;;;4976891;28;20051;-74
2023/04/25 17:13:23;;;;;;;4.53;2.92;;;;;;;;;;4976765;28;20019;-74
2023/04/25 17:16:10;;;;;;;3.65;2.50;;;;;;;;;;4976342;28;20386;-74
2023/04/25 17:18:57;;;;;;;5.13;3.70;;;;;;;;;;4974936;28;20035;-74
2023/04/25 17:21:42;;;;;;;6.95;2.95;;;;;;;;;;4976543;28;20096;-74
2023/04/25 17:24:28;;;;;;;4.30;2.47;;;;;;;;;;4975482;28;20035;-74
2023/04/25 17:27:14;;;;;;;4.93;2.78;;;;;;;;;;4975622;28;20027;-73
2023/04/25 17:30:00;;;;;;;7.35;3.10;;;;;;;;;;4974630;28;20037;-74
2023/04/25 17:32:45;;;;;;;5.10;2.90;;;;;;;;;;4976723;28;20047;-75
2023/04/25 17:35:32;;;;;;;5.30;2.50;;;;;;;;;;4975863;28;20059;-74
2023/04/25 17:38:18;;;;;;;6.30;2.90;;;;;;;;;;4960530;28;20026;-75
2023/04/25 17:41:04;;;;;;;7.82;3.05;;;;;;;;;;4976214;28;20034;-73
2023/04/25 17:43:50;;;;;;;3.80;2.75;;;;;;;;;;4961074;28;20031;-73
2023/04/25 17:46:36;;;;;;;3.90;2.78;;;;;;;;;;4976347;28;20375;-73
2023/04/25 17:49:21;;;;;;;7.15;3.97;;;;;;;;;;4960807;28;20026;-74
2023/04/25 17:52:07;;;;;;;7.32;4.78;;;;;;;;;;4975541;28;20050;-73
2023/04/25 17:54:53;;;;;;;7.97;4.75;;;;;;;;;;4974997;28;20077;-73
2023/04/25 17:57:38;;;;;;;6.03;4.10;;;;;;;;;;4975403;28;20019;-74
2023/04/25 18:00:24;;;;;;;6.68;3.83;;;;;;;;;;4978942;28;20023;-74
2023/04/25 18:03:10;;;;;;;6.65;4.00;;;;;;;;;;4979684;28;20023;-75
2023/04/25 18:05:56;;;;;;;7.93;4.30;;;;;;;;;;4969767;28;20098;-73
2023/04/25 18:08:43;;;;;;;4.95;3.63;;;;;;;;;;4998665;28;20022;-75
2023/04/25 18:11:29;;;;;;;6.50;4.47;;;;;;;;;;4999589;28;20127;-75
2023/04/25 18:14:15;;;;;;;8.65;4.65;;;;;;;;;;4998785;28;20112;-75
2023/04/25 18:17:03;;;;;;;8.15;4.63;;;;;;;;;;4997476;28;20033;-75
2023/04/25 18:19:49;;;;;;;7.82;5.05;;;;;;;;;;4977035;28;20295;-74
2023/04/25 18:22:36;;;;;;;7.55;5.18;;;;;;;;;;4978302;28;20114;-75
2023/04/25 18:25:21;;;;;;;7.18;4.90;;;;;;;;;;4977523;28;20041;-75
2023/04/25 18:28:07;;;;;;;7.00;5.13;;;;;;;;;;4979215;28;20026;-74
2023/04/25 18:30:53;;;;;;;7.50;4.95;;;;;;;;;;4977722;28;20061;-77
2023/04/25 18:33:39;;;;;;;8.38;5.38;;;;;;;;;;4964129;28;20129;-74
2023/04/25 18:36:26;;;;;;;9.40;5.55;;;;;;;;;;4979322;28;20023;-77
2023/04/25 18:39:11;;;;;;;8.98;6.07;;;;;;;;;;4963636;28;20023;-73
2023/04/25 18:41:57;;;;;;;9.70;6.35;;;;;;;;;;4978300;28;20035;-75
2023/04/25 18:44:44;;;;;;;13.55;6.80;;;;;;;;;;4978240;28;20457;-73
2023/04/25 18:47:30;;;;;;;9.70;6.82;;;;;;;;;;4963348;28;20104;-72
2023/04/25 18:50:19;;;;;;;9.60;7.25;;;;;;;;;;4978643;28;20034;-72
2023/04/25 18:53:04;;;;;;;10.05;7.00;;;;;;;;;;4977981;28;20027;-73
2023/04/25 18:55:50;;;;;;;10.35;7.07;;;;;;;;;;4978180;28;20030;-72
2023/04/25 18:58:36;;;;;;;9.73;7.75;;;;;;;;;;4976872;28;20030;-73
2023/04/25 19:01:23;;;;;;;10.32;8.00;;;;;;;;;;4977373;28;20097;-72
2023/04/25 19:04:09;;;;;;;9.70;7.80;;;;;;;;;;4977355;28;20089;-72
2023/04/25 19:06:55;;;;;;;8.60;7.40;;;;;;;;;;4976900;28;20040;-73
2023/04/25 19:09:40;;;;;;;10.45;8.48;;;;;;;;;;4976770;28;20478;-71
2023/04/25 19:12:26;;;;;;;10.43;8.18;;;;;;;;;;4963055;28;20023;-72
2023/04/25 19:15:11;;;;;;;19.75;13.23;;;;;;;;;;4978485;28;20361;-72
2023/04/25 19:17:57;;;;;;;26.05;19.23;;;;;;;;;;4964067;28;20027;-73
2023/04/25 19:20:42;;;;;;;24.75;16.75;;;;;;;;;;4977221;28;20023;-72
2023/04/25 19:23:30;;;;;;;21.45;13.88;;;;;;;;;;4976791;28;20198;-70
2023/04/25 19:26:15;;;;;;;16.55;11.45;;;;;;;;;;4976356;28;20050;-72
2023/04/25 19:29:03;;;;;;;14.13;9.30;;;;;;;;;;4976560;28;20057;-72
2023/04/25 19:31:49;;;;;;;12.98;8.95;;;;;;;;;;4978122;28;20078;-72
2023/04/25 19:34:35;;;;;;;12.93;9.05;;;;;;;;;;4983122;28;20011;-72
2023/04/25 19:37:20;;;;;;;11.23;8.55;;;;;;;;;;4994887;28;20027;-71
2023/04/25 19:40:06;;;;;;;11.50;8.70;;;;;;;;;;4979787;28;20029;-71
2023/04/25 19:42:52;;;;;;;12.27;7.70;;;;;;;;;;4976397;28;20033;-72
2023/04/25 19:45:38;;;;;;;9.77;6.95;;;;;;;;;;4962668;28;20100;-71
2023/04/25 19:48:23;;;;;;;11.52;7.15;;;;;;;;;;4977139;28;20065;-71
2023/04/25 19:51:09;;;;;;;10.77;6.80;;;;;;;;;;4976466;28;20027;-71